Aviation Digital Data Service (ADDS)

Output produced by METARs form (0253 UTC 19 April 2014)
found at http://aviationweather.gov/adds/metars/
 
KGSO 190203Z 1902/1924 03006KT P6SM -RA BKN080 OVC250 
     FM190500 04010KT 5SM -RA BR OVC019 
     FM191000 03012G22KT 5SM -RA BR OVC007 
     FM192200 06012G22KT P6SM SCT007 BKN015